KFME/FME METAR and TAF weather

Enter ICAO airport designator
Station Type Date Time Source
KFME METAR 2021/05/15 22:35 UTC NOAA

KFME 152235Z AUTO 12004KT 10SM CLR 21/05 A3022 RMK AO1


Station Type Date Time Source
KFME Decoded METAR 2021/05/15 22:35 UTC NOAA

Fort Meade / Tipton, MD, United States (KFME) 39-05N 076-46W
May 15, 2021 - 06:35 PM EDT / 2021.05.15 2235 UTC
Wind: from the ESE (120 degrees) at 5 MPH (4 KT):0
Visibility: 10 mile(s):0
Sky conditions: clear
Temperature: 69 F (21 C)
Dew Point: 41 F (5 C)
Relative Humidity: 35%
Pressure (altimeter): 30.22 in. Hg (1023 hPa)
ob: KFME 152235Z AUTO 12004KT 10SM CLR 21/05 A3022 RMK AO1
cycle: 22

Station Type Date Time Source
KFME TAF UTC NOAA

Error!

Example: see airport list